Darstellungsparameter: Aktuell verwendete Einstellungen:
Skalierung der Graphiken ... ?
xyx+y,   Skalierungsfaktor:      Skalierung: Modus: x, Faktor: 1
Darstellungszeitraum ... ?
Vom - - bis: - -   Zeitraum: 12.11.2008 - 16.11.2008
Min/Max/Avg-Anzeige ... ?
Zeige MMA aktuell
Zeige MMA Monat
Zeige MMA alles
Zeige --A aktuell
Zeige --A Monat
Zeige --A alles
Keine MMA-Anzeige
MMA:
Average (ber die Originaldaten)
MMA-Basis: 17.04.2019 - 19.05.2019
Quicknavigation für Darstellung... ?
Tage:      1T, 2T, 3T, 5T -1T -2T -3T -5T +1T +2T +3T +5T
Wochen: 1W, 2W, 3W -1W -2W -3W +1W +2W +3W
Monate: 1M, 3M, 6M -1M -3M -6M +1M +3M +6M
Jahre:    1J, 3J, 5J, 10J -1J -3J -5J -10J +1J +3J +5J +10J
Nutze für die Darstellung ... ?
Originaldaten oder Mittelwerte auf ...
Stundenbasis Tagesbasis Wochenbasis
Monatsbasis Jahresbasis      Datenbasis: Original-Daten
Darstellen als:
Statistik (Auto) Statistik J:M      Darstellung:
Zur Graphik,    zurück zur Übersicht aller Sensoren.
 
Tabellarische Datenbersicht: ?
 
Sensor: Nr:Datum:Temp:Abs-Feuchte:Windchill:Wind:
Aussen-T/F 1 12-11-2008 00:04:02 8.3 C 7.33 g/m*3 8.3 C 0 km/h
2 12-11-2008 00:16:03 8.2 C 7.37 g/m*3 8.2 C 0 km/h
3 12-11-2008 00:28:03 8.1 C 7.32 g/m*3 8.1 C 0 km/h
4 12-11-2008 00:40:02 8.2 C 7.45 g/m*3 8.2 C 0 km/h
5 12-11-2008 00:52:01 8.1 C 7.41 g/m*3 8.1 C 0 km/h
6 12-11-2008 01:04:02 8.3 C 7.5 g/m*3 8.3 C 0 km/h
7 12-11-2008 01:16:01 8.3 C 7.5 g/m*3 8.3 C 0 km/h
8 12-11-2008 01:28:01 8.4 C 7.55 g/m*3 8.4 C 0 km/h
9 12-11-2008 01:40:02 8.5 C 7.51 g/m*3 8.5 C 0 km/h
10 12-11-2008 01:52:02 8.5 C 7.51 g/m*3 8.5 C 0 km/h
11 12-11-2008 02:04:02 8.2 C 7.2 g/m*3 8.2 C 0 km/h
12 12-11-2008 02:16:02 8.1 C 7.16 g/m*3 8.1 C 0 km/h
13 12-11-2008 02:28:02 8.1 C 7.16 g/m*3 8.1 C 0 km/h
14 12-11-2008 02:40:02 8 C 7.03 g/m*3 8 C 0 km/h
15 12-11-2008 02:53:03 8.1 C 6.99 g/m*3 8.1 C 0 km/h
16 12-11-2008 03:05:04 8 C 6.94 g/m*3 8 C 0 km/h
17 12-11-2008 03:17:03 7.6 C 6.85 g/m*3 7.6 C 0 km/h
18 12-11-2008 03:29:03 7.5 C 6.88 g/m*3 7.5 C 0 km/h
19 12-11-2008 03:41:01 7.3 C 6.79 g/m*3 7.3 C 0 km/h
20 12-11-2008 03:53:01 7.1 C 6.79 g/m*3 7.1 C 0 km/h
21 12-11-2008 04:05:02 7.3 C 6.95 g/m*3 7.3 C 0 km/h
22 12-11-2008 04:17:02 7.4 C 7 g/m*3 7.4 C 0 km/h
23 12-11-2008 04:29:02 7.2 C 6.91 g/m*3 7.2 C 0 km/h
24 12-11-2008 04:41:02 7.5 C 7.04 g/m*3 7.5 C 0 km/h
25 12-11-2008 04:53:02 7.7 C 7.14 g/m*3 7.7 C 0 km/h
Sensor: Nr:Datum:Temp:Abs-Feuchte:Windchill:Wind:
Aussen-T/F 26 12-11-2008 05:05:02 7.9 C 7.15 g/m*3 7.9 C 0 km/h
27 12-11-2008 05:17:01 7.9 C 7.15 g/m*3 7.9 C 0 km/h
28 12-11-2008 05:29:01 7.8 C 7.1 g/m*3 7.8 C 0 km/h
29 12-11-2008 05:41:02 7.6 C 7.01 g/m*3 7.6 C 0 km/h
30 12-11-2008 05:53:02 7.4 C 6.92 g/m*3 7.4 C 0 km/h
31 12-11-2008 06:05:02 7.4 C 6.92 g/m*3 7.4 C 0 km/h
32 12-11-2008 06:17:02 7.5 C 6.96 g/m*3 7.5 C 0 km/h
33 12-11-2008 06:29:02 7.8 C 6.94 g/m*3 7.8 C 0 km/h
34 12-11-2008 06:41:02 8 C 6.7 g/m*3 8 C 0 km/h
35 12-11-2008 06:53:01 8 C 6.7 g/m*3 8 C 0 km/h
36 12-11-2008 07:05:02 7.8 C 6.69 g/m*3 7.8 C 0 km/h
37 12-11-2008 07:17:01 7.5 C 6.56 g/m*3 7.5 C 0 km/h
38 12-11-2008 07:29:01 7.4 C 6.44 g/m*3 7.4 C 0 km/h
39 12-11-2008 07:41:01 7.2 C 6.44 g/m*3 7.2 C 0 km/h
40 12-11-2008 07:53:02 7.6 C 6.69 g/m*3 7.6 C 0 km/h
41 12-11-2008 08:05:02 7.8 C 6.61 g/m*3 7.8 C 0 km/h
42 12-11-2008 08:17:02 7.9 C 6.49 g/m*3 7.9 C 0 km/h
43 12-11-2008 08:29:02 8 C 6.45 g/m*3 8 C 0 km/h
44 12-11-2008 08:41:02 8.1 C 6.41 g/m*3 8.1 C 0 km/h
45 12-11-2008 08:53:02 7.9 C 6.49 g/m*3 7.9 C 0 km/h
46 12-11-2008 09:05:02 7.8 C 6.45 g/m*3 7.8 C 0 km/h
47 12-11-2008 09:17:02 7.6 C 6.44 g/m*3 7.6 C 0 km/h
48 12-11-2008 09:29:02 7.7 C 6.57 g/m*3 7.7 C 0 km/h
49 12-11-2008 09:41:02 8.2 C 6.7 g/m*3 8.2 C 0 km/h
50 12-11-2008 09:53:02 8.2 C 6.53 g/m*3 8.2 C 0 km/h
Sensor: Nr:Datum:Temp:Abs-Feuchte:Windchill:Wind:
Aussen-T/F 51 12-11-2008 10:05:01 8.2 C 6.53 g/m*3 8.2 C 0 km/h
52 12-11-2008 10:17:02 8.9 C 6.57 g/m*3 8.9 C 0 km/h
53 12-11-2008 10:29:02 9.3 C 6.38 g/m*3 9.3 C 0 km/h
54 12-11-2008 10:41:01 9.4 C 6.15 g/m*3 9.4 C 0 km/h
55 12-11-2008 10:53:02 9.6 C 6.32 g/m*3 9.6 C 0 km/h
56 12-11-2008 11:05:01 9.8 C 6.31 g/m*3 9.8 C 0 km/h
57 12-11-2008 11:17:02 10.2 C 6.38 g/m*3 10.2 C 0 km/h
58 12-11-2008 11:29:02 10.7 C 6.48 g/m*3 10.7 C 0 km/h
59 12-11-2008 11:41:01 10.6 C 6.44 g/m*3 10.6 C 0 km/h
60 12-11-2008 11:53:01 9.9 C 6.63 g/m*3 9.9 C 0 km/h
61 12-11-2008 12:05:01 10.4 C 6.84 g/m*3 10.4 C 0 km/h
62 12-11-2008 12:17:02 10.5 C 6.89 g/m*3 10.5 C 0 km/h
63 12-11-2008 12:29:02 10.4 C 6.65 g/m*3 10.4 C 0 km/h
64 12-11-2008 12:41:01 10.9 C 6.76 g/m*3 10.9 C 0 km/h
65 12-11-2008 12:53:01 11.2 C 6.39 g/m*3 11.2 C 0 km/h
66 12-11-2008 13:05:01 11.8 C 6.31 g/m*3 11.8 C 0 km/h
67 12-11-2008 13:17:01 11.7 C 6.38 g/m*3 11.7 C 0 km/h
68 12-11-2008 13:29:01 11.1 C 6.04 g/m*3 11.1 C 0 km/h
69 12-11-2008 13:41:01 11.5 C 6.09 g/m*3 11.5 C 0 km/h
70 12-11-2008 13:53:01 11.5 C 5.89 g/m*3 11.5 C 0 km/h
71 12-11-2008 14:05:02 11.2 C 5.88 g/m*3 11.2 C 0 km/h
72 12-11-2008 14:17:01 11.9 C 5.93 g/m*3 11.9 C 0 km/h
73 12-11-2008 14:29:01 11.7 C 5.75 g/m*3 11.7 C 0 km/h
74 12-11-2008 14:41:02 11.2 C 5.78 g/m*3 11.2 C 0 km/h
75 12-11-2008 14:53:02 10.9 C 5.97 g/m*3 10.9 C 0 km/h
Sensor: Nr:Datum:Temp:Abs-Feuchte:Windchill:Wind:
Aussen-T/F 76 12-11-2008 15:05:02 12 C 5.97 g/m*3 12 C 0 km/h
77 12-11-2008 15:17:01 12.3 C 5.86 g/m*3 12.3 C 0 km/h
78 12-11-2008 15:29:01 11.8 C 5.79 g/m*3 11.8 C 0 km/h
79 12-11-2008 15:41:02 11.1 C 5.84 g/m*3 11.1 C 0 km/h
80 12-11-2008 15:53:02 10.7 C 5.89 g/m*3 10.7 C 0 km/h
81 12-11-2008 16:05:02 10.8 C 5.93 g/m*3 10.8 C 0 km/h
82 12-11-2008 16:17:02 10.8 C 5.93 g/m*3 10.8 C 0 km/h
83 12-11-2008 16:29:02 10.4 C 5.88 g/m*3 10.4 C 0 km/h
84 12-11-2008 16:41:02 9.9 C 5.98 g/m*3 9.9 C 0 km/h
85 12-11-2008 16:53:02 9.6 C 5.95 g/m*3 9.6 C 0 km/h
86 12-11-2008 17:05:01 9.5 C 6.01 g/m*3 9.5 C 0 km/h
87 12-11-2008 17:17:02 9.2 C 6.07 g/m*3 9.2 C 0 km/h
88 12-11-2008 17:29:02 8.7 C 6.05 g/m*3 8.7 C 0 km/h
89 12-11-2008 17:41:01 8.3 C 5.98 g/m*3 8.3 C 0 km/h
90 12-11-2008 17:53:03 8.1 C 6.07 g/m*3 8.1 C 0 km/h
91 12-11-2008 18:05:02 7.8 C 6.04 g/m*3 7.8 C 0 km/h
92 12-11-2008 18:17:02 7.8 C 6.2 g/m*3 7.8 C 0 km/h
93 12-11-2008 18:29:02 7.6 C 6.2 g/m*3 7.6 C 0 km/h
94 12-11-2008 18:41:02 7.6 C 6.2 g/m*3 7.6 C 0 km/h
95 12-11-2008 18:53:03 7.8 C 6.28 g/m*3 7.8 C 0 km/h
96 12-11-2008 19:05:02 7.7 C 6.24 g/m*3 7.7 C 0 km/h
97 12-11-2008 19:17:02 7.6 C 6.2 g/m*3 7.6 C 0 km/h
98 12-11-2008 19:29:02 7.8 C 6.37 g/m*3 7.8 C 0 km/h
99 12-11-2008 19:41:02 7.7 C 6.32 g/m*3 7.7 C 0 km/h
100 12-11-2008 19:53:02 7.8 C 6.45 g/m*3 7.8 C 0 km/h
Sensor: Nr:Datum:Temp:Abs-Feuchte:Windchill:Wind:
Aussen-T/F 101 12-11-2008 20:05:01 7.9 C 6.41 g/m*3 7.9 C 0 km/h
102 12-11-2008 20:17:02 7.9 C 6.41 g/m*3 7.9 C 0 km/h
103 12-11-2008 20:29:02 7.8 C 6.45 g/m*3 7.8 C 0 km/h
104 12-11-2008 20:41:01 7.7 C 6.41 g/m*3 7.7 C 0 km/h
105 12-11-2008 20:53:02 7.4 C 6.28 g/m*3 7.4 C 0 km/h
106 12-11-2008 21:05:01 7.1 C 6.24 g/m*3 7.1 C 0 km/h
107 12-11-2008 21:17:02 7.1 C 6.32 g/m*3 7.1 C 0 km/h
108 12-11-2008 21:29:02 7.1 C 6.32 g/m*3 7.1 C 0 km/h
109 12-11-2008 21:41:01 7.1 C 6.32 g/m*3 7.1 C 0 km/h
110 12-11-2008 21:53:01 7.1 C 6.4 g/m*3 7.1 C 0 km/h
111 12-11-2008 22:05:02 7.2 C 6.44 g/m*3 7.2 C 0 km/h
112 12-11-2008 22:17:02 7.1 C 6.32 g/m*3 7.1 C 0 km/h
113 12-11-2008 22:29:02 6.8 C 6.27 g/m*3 6.8 C 0 km/h
114 12-11-2008 22:41:01 6.3 C 6.14 g/m*3 6.3 C 0 km/h
115 12-11-2008 22:53:01 6.2 C 6.18 g/m*3 6.2 C 0 km/h
116 12-11-2008 23:05:02 6 C 6.1 g/m*3 6 C 0 km/h
117 12-11-2008 23:17:01 5.7 C 6.05 g/m*3 5.7 C 0 km/h
118 12-11-2008 23:29:01 5.5 C 6.04 g/m*3 5.5 C 0 km/h
119 12-11-2008 23:41:02 5.2 C 5.92 g/m*3 5.2 C 0 km/h
120 12-11-2008 23:53:02 5 C 5.84 g/m*3 5 C 0 km/h
121 13-11-2008 00:05:02 5 C 5.91 g/m*3 5 C 0 km/h
122 13-11-2008 00:17:02 4.8 C 5.9 g/m*3 4.8 C 0 km/h
123 13-11-2008 00:29:02 4.7 C 5.93 g/m*3 4.7 C 0 km/h
124 13-11-2008 00:41:02 4.8 C 6.04 g/m*3 4.8 C 0 km/h
125 13-11-2008 00:53:02 4.8 C 6.04 g/m*3 4.8 C 0 km/h
Sensor: Nr:Datum:Temp:Abs-Feuchte:Windchill:Wind:
Aussen-T/F 126 13-11-2008 01:05:02 4.7 C 6.06 g/m*3 4.7 C 0 km/h
127 13-11-2008 01:17:02 4.9 C 6.21 g/m*3 4.9 C 0 km/h
128 13-11-2008 01:29:02 4.8 C 6.17 g/m*3 4.8 C 0 km/h
129 13-11-2008 01:41:02 4.7 C 6.06 g/m*3 4.7 C 0 km/h
130 13-11-2008 01:53:02 4.5 C 5.98 g/m*3 4.5 C 0 km/h
131 13-11-2008 02:05:03 4.2 C 5.86 g/m*3 4.2 C 0 km/h
132 13-11-2008 02:17:02 4 C 5.79 g/m*3 4 C 0 km/h
133 13-11-2008 02:29:02 3.7 C 5.8 g/m*3 3.7 C 0 km/h
134 13-11-2008 02:41:03 3.7 C 5.8 g/m*3 3.7 C 0 km/h
135 13-11-2008 02:53:01 3.6 C 5.82 g/m*3 3.6 C 0 km/h
136 13-11-2008 03:05:01 3.6 C 5.82 g/m*3 3.6 C 0 km/h
137 13-11-2008 03:17:02 3.6 C 5.88 g/m*3 3.6 C 0 km/h
138 13-11-2008 03:29:02 3.7 C 5.92 g/m*3 3.7 C 0 km/h
139 13-11-2008 03:41:02 3.6 C 5.88 g/m*3 3.6 C 0 km/h
140 13-11-2008 03:53:02 3.5 C 5.84 g/m*3 3.5 C 0 km/h
141 13-11-2008 04:05:01 3.8 C 5.96 g/m*3 3.8 C 0 km/h
142 13-11-2008 04:17:02 3.9 C 6 g/m*3 3.9 C 0 km/h
143 13-11-2008 04:29:02 3.8 C 5.96 g/m*3 3.8 C 0 km/h
144 13-11-2008 04:41:01 4 C 6.04 g/m*3 4 C 0 km/h
145 13-11-2008 04:53:02 4.2 C 6.06 g/m*3 4.2 C 0 km/h
146 13-11-2008 05:05:01 4.3 C 6.1 g/m*3 4.3 C 0 km/h
147 13-11-2008 05:17:02 4.5 C 6.18 g/m*3 4.5 C 0 km/h
148 13-11-2008 05:29:02 4.5 C 6.11 g/m*3 4.5 C 0 km/h
149 13-11-2008 05:41:01 4.6 C 6.15 g/m*3 4.6 C 0 km/h
150 13-11-2008 05:53:02 4.8 C 6.17 g/m*3 4.8 C 0 km/h
Sensor: Nr:Datum:Temp:Abs-Feuchte:Windchill:Wind:
Aussen-T/F 151 13-11-2008 06:05:01 4.7 C 6.13 g/m*3 4.7 C 0 km/h
152 13-11-2008 06:17:02 4.7 C 6.13 g/m*3 4.7 C 0 km/h
153 13-11-2008 06:29:02 4.8 C 6.17 g/m*3 4.8 C 0 km/h
154 13-11-2008 06:41:01 4.8 C 6.17 g/m*3 4.8 C 0 km/h
155 13-11-2008 06:53:01 4.8 C 6.17 g/m*3 4.8 C 0 km/h
156 13-11-2008 07:05:01 4.8 C 6.1 g/m*3 4.8 C 0 km/h
157 13-11-2008 07:17:02 4.8 C 6.1 g/m*3 4.8 C 0 km/h
158 13-11-2008 07:29:02 5 C 6.18 g/m*3 5 C 0 km/h
159 13-11-2008 07:41:01 5.1 C 6.22 g/m*3 5.1 C 0 km/h
160 13-11-2008 07:53:01 5.1 C 6.16 g/m*3 5.1 C 0 km/h
161 13-11-2008 08:05:05 5 C 6.12 g/m*3 5 C 0 km/h
162 13-11-2008 08:17:02 5.1 C 6.16 g/m*3 5.1 C 0 km/h
163 13-11-2008 08:29:02 5.3 C 6.24 g/m*3 5.3 C 0 km/h
164 13-11-2008 08:41:01 5.4 C 6.28 g/m*3 5.4 C 0 km/h
165 13-11-2008 08:53:01 5.6 C 6.36 g/m*3 5.6 C 0 km/h
166 13-11-2008 09:05:01 5.7 C 6.33 g/m*3 5.7 C 0 km/h
167 13-11-2008 09:17:02 5.8 C 6.3 g/m*3 5.8 C 0 km/h
168 13-11-2008 09:29:02 6 C 6.31 g/m*3 6 C 0 km/h
169 13-11-2008 09:41:01 6.3 C 6.37 g/m*3 6.3 C 0 km/h
170 13-11-2008 09:53:01 6.6 C 6.49 g/m*3 6.6 C 0 km/h
171 13-11-2008 10:05:02 6.9 C 6.54 g/m*3 6.9 C 0 km/h
172 13-11-2008 10:17:01 7 C 6.35 g/m*3 7 C 0 km/h
173 13-11-2008 10:29:01 7.2 C 6.2 g/m*3 7.2 C 0 km/h
174 13-11-2008 10:41:02 7.3 C 6.24 g/m*3 7.3 C 0 km/h
175 13-11-2008 10:53:01 7.1 C 6.16 g/m*3 7.1 C 0 km/h
Sensor: Nr:Datum:Temp:Abs-Feuchte:Windchill:Wind:
Aussen-T/F 176 13-11-2008 11:05:02 7 C 6.12 g/m*3 7 C 0 km/h
177 13-11-2008 11:17:01 7.5 C 6.32 g/m*3 7.5 C 0 km/h
178 13-11-2008 11:29:01 8.1 C 6.24 g/m*3 8.1 C 0 km/h
179 13-11-2008 11:41:02 8.3 C 6.15 g/m*3 8.3 C 0 km/h
180 13-11-2008 11:53:01 8.7 C 6.23 g/m*3 8.7 C 0 km/h
181 13-11-2008 12:05:02 8.6 C 6.1 g/m*3 8.6 C 0 km/h
182 13-11-2008 12:17:02 8.8 C 6.18 g/m*3 8.8 C 0 km/h
183 13-11-2008 12:29:02 9 C 6.08 g/m*3 9 C 0 km/h
184 13-11-2008 12:41:02 9.2 C 6.07 g/m*3 9.2 C 0 km/h
185 13-11-2008 12:53:01 9.3 C 6.02 g/m*3 9.3 C 0 km/h
186 13-11-2008 13:05:02 9.4 C 5.97 g/m*3 9.4 C 0 km/h
187 13-11-2008 13:17:01 9.5 C 5.92 g/m*3 9.5 C 0 km/h
188 13-11-2008 13:29:01 9.6 C 5.95 g/m*3 9.6 C 0 km/h
189 13-11-2008 13:41:02 9.6 C 5.86 g/m*3 9.6 C 0 km/h
190 13-11-2008 13:53:01 9.8 C 5.85 g/m*3 9.8 C 0 km/h
191 13-11-2008 14:05:02 9.9 C 5.79 g/m*3 9.9 C 0 km/h
192 13-11-2008 14:17:01 9.9 C 5.79 g/m*3 9.9 C 0 km/h
193 13-11-2008 14:29:01 10 C 5.83 g/m*3 10 C 0 km/h
194 13-11-2008 14:41:02 10 C 5.83 g/m*3 10 C 0 km/h
195 13-11-2008 14:53:01 10 C 5.83 g/m*3 10 C 0 km/h
196 13-11-2008 15:05:01 9.8 C 5.85 g/m*3 9.8 C 0 km/h
197 13-11-2008 15:17:01 9.8 C 5.94 g/m*3 9.8 C 0 km/h
198 13-11-2008 15:29:01 9.8 C 5.94 g/m*3 9.8 C 0 km/h
199 13-11-2008 15:41:02 9.7 C 5.9 g/m*3 9.7 C 0 km/h
200 13-11-2008 15:53:02 9.6 C 5.95 g/m*3 9.6 C 0 km/h
Sensor: Nr:Datum:Temp:Abs-Feuchte:Windchill:Wind:
Aussen-T/F 201 13-11-2008 16:05:01 9.5 C 5.92 g/m*3 9.5 C 0 km/h
202 13-11-2008 16:17:02 9.4 C 6.06 g/m*3 9.4 C 0 km/h
203 13-11-2008 16:29:02 9.2 C 6.16 g/m*3 9.2 C 0 km/h
204 13-11-2008 16:41:01 8.9 C 6.22 g/m*3 8.9 C 0 km/h
205 13-11-2008 16:53:01 8.7 C 6.23 g/m*3 8.7 C 0 km/h
206 13-11-2008 17:05:01 8.5 C 6.23 g/m*3 8.5 C 0 km/h
207 13-11-2008 17:17:01 8.4 C 6.28 g/m*3 8.4 C 0 km/h
208 13-11-2008 17:29:01 8.2 C 6.28 g/m*3 8.2 C 0 km/h
209 13-11-2008 17:41:01 8.2 C 6.2 g/m*3 8.2 C 0 km/h
210 13-11-2008 17:53:01 8.1 C 6.16 g/m*3 8.1 C 0 km/h
211 13-11-2008 18:05:02 8.1 C 6.16 g/m*3 8.1 C 0 km/h
212 13-11-2008 18:17:01 7.9 C 6.08 g/m*3 7.9 C 0 km/h
213 13-11-2008 18:29:01 7.7 C 6 g/m*3 7.7 C 0 km/h
214 13-11-2008 18:41:02 7.7 C 6 g/m*3 7.7 C 0 km/h
215 13-11-2008 18:53:01 7.6 C 6.04 g/m*3 7.6 C 0 km/h
216 13-11-2008 19:05:02 7.7 C 6.08 g/m*3 7.7 C 0 km/h
217 13-11-2008 19:17:01 7.6 C 6.04 g/m*3 7.6 C 0 km/h
218 13-11-2008 19:29:01 7.5 C 6 g/m*3 7.5 C 0 km/h
219 13-11-2008 19:41:02 7.3 C 5.93 g/m*3 7.3 C 0 km/h
220 13-11-2008 19:53:02 7.3 C 6 g/m*3 7.3 C 0 km/h
221 13-11-2008 20:05:01 7.1 C 5.93 g/m*3 7.1 C 0 km/h
222 13-11-2008 20:17:01 7.1 C 6.01 g/m*3 7.1 C 0 km/h
223 13-11-2008 20:29:01 7 C 5.97 g/m*3 7 C 0 km/h
224 13-11-2008 20:41:01 6.9 C 6 g/m*3 6.9 C 0 km/h
225 13-11-2008 20:53:02 6.5 C 5.85 g/m*3 6.5 C 0 km/h
Sensor: Nr:Datum:Temp:Abs-Feuchte:Windchill:Wind:
Aussen-T/F 226 13-11-2008 21:05:01 6.1 C 5.7 g/m*3 6.1 C 0 km/h
227 13-11-2008 21:17:02 5.9 C 5.77 g/m*3 5.9 C 0 km/h
228 13-11-2008 21:29:02 5.8 C 5.73 g/m*3 5.8 C 0 km/h
229 13-11-2008 21:41:01 5.6 C 5.73 g/m*3 5.6 C 0 km/h
230 13-11-2008 21:53:01 5.4 C 5.65 g/m*3 5.4 C 0 km/h
231 13-11-2008 22:05:02 5.1 C 5.61 g/m*3 5.1 C 0 km/h
232 13-11-2008 22:17:01 4.8 C 5.63 g/m*3 4.8 C 0 km/h
233 13-11-2008 22:29:01 4.6 C 5.56 g/m*3 4.6 C 0 km/h
234 13-11-2008 22:41:02 4.4 C 5.55 g/m*3 4.4 C 0 km/h
235 13-11-2008 22:53:01 4.3 C 5.51 g/m*3 4.3 C 0 km/h
236 13-11-2008 23:05:01 4.4 C 5.62 g/m*3 4.4 C 0 km/h
237 13-11-2008 23:17:02 4.2 C 5.61 g/m*3 4.2 C 0 km/h
238 13-11-2008 23:29:02 3.8 C 5.46 g/m*3 3.8 C 0 km/h
239 13-11-2008 23:41:02 3.7 C 5.48 g/m*3 3.7 C 0 km/h
240 13-11-2008 23:53:01 3.5 C 5.41 g/m*3 3.5 C 0 km/h
241 14-11-2008 00:05:02 3.5 C 5.47 g/m*3 3.5 C 0 km/h
242 14-11-2008 00:17:02 3.5 C 5.47 g/m*3 3.5 C 0 km/h
243 14-11-2008 00:29:02 3.6 C 5.57 g/m*3 3.6 C 0 km/h
244 14-11-2008 00:41:02 3.6 C 5.57 g/m*3 3.6 C 0 km/h
245 14-11-2008 00:53:02 3.4 C 5.5 g/m*3 3.4 C 0 km/h
246 14-11-2008 01:05:02 3.1 C 5.39 g/m*3 3.1 C 0 km/h
247 14-11-2008 01:17:02 2.7 C 5.24 g/m*3 2.7 C 0 km/h
248 14-11-2008 01:29:02 2.6 C 5.27 g/m*3 2.6 C 0 km/h
249 14-11-2008 01:41:01 2.6 C 5.27 g/m*3 2.6 C 0 km/h
250 14-11-2008 01:53:01 2.5 C 5.23 g/m*3 2.5 C 0 km/h
Sensor: Nr:Datum:Temp:Abs-Feuchte:Windchill:Wind:
Aussen-T/F 251 14-11-2008 02:05:01 2.2 C 5.13 g/m*3 2.2 C 0 km/h
252 14-11-2008 02:17:01 2.2 C 5.13 g/m*3 2.2 C 0 km/h
253 14-11-2008 02:29:01 2.1 C 5.09 g/m*3 2.1 C 0 km/h
254 14-11-2008 02:41:01 2.5 C 5.29 g/m*3 2.5 C 0 km/h
255 14-11-2008 02:54:06 2.3 C 5.22 g/m*3 2.3 C 0 km/h
256 14-11-2008 03:06:06 2.5 C 5.29 g/m*3 2.5 C 0 km/h
257 14-11-2008 03:18:07 2.3 C 5.22 g/m*3 2.3 C 0 km/h
258 14-11-2008 03:30:07 2 C 5.11 g/m*3 2 C 0 km/h
259 14-11-2008 03:42:02 1.9 C 5.13 g/m*3 1.9 C 0 km/h
260 14-11-2008 03:54:02 1.7 C 5.06 g/m*3 1.7 C 0 km/h
261 14-11-2008 04:06:02 1.9 C 5.19 g/m*3 1.9 C 0 km/h
262 14-11-2008 04:18:02 1.8 C 5.15 g/m*3 1.8 C 0 km/h
263 14-11-2008 04:30:02 1.9 C 5.19 g/m*3 1.9 C 0 km/h
264 14-11-2008 04:42:02 2 C 5.22 g/m*3 2 C 0 km/h
265 14-11-2008 04:54:02 2 C 5.22 g/m*3 2 C 0 km/h
266 14-11-2008 05:06:02 2 C 5.28 g/m*3 2 C 0 km/h
267 14-11-2008 05:18:02 2.1 C 5.31 g/m*3 2.1 C 0 km/h
268 14-11-2008 05:30:02 2.2 C 5.35 g/m*3 2.2 C 0 km/h
269 14-11-2008 05:42:02 2.2 C 5.35 g/m*3 2.2 C 0 km/h
270 14-11-2008 05:54:01 2.2 C 5.35 g/m*3 2.2 C 0 km/h
271 14-11-2008 06:06:02 2.3 C 5.39 g/m*3 2.3 C 0 km/h
272 14-11-2008 06:18:02 2.2 C 5.29 g/m*3 2.2 C 0 km/h
273 14-11-2008 06:30:02 2.1 C 5.26 g/m*3 2.1 C 0 km/h
274 14-11-2008 06:42:01 2 C 5.22 g/m*3 2 C 0 km/h
275 14-11-2008 06:54:01 1.8 C 5.15 g/m*3 1.8 C 0 km/h
Sensor: Nr:Datum:Temp:Abs-Feuchte:Windchill:Wind:
Aussen-T/F 276 14-11-2008 07:06:02 1.7 C 5.06 g/m*3 1.7 C 0 km/h
277 14-11-2008 07:18:02 1.5 C 4.99 g/m*3 1.5 C 0 km/h
278 14-11-2008 07:30:02 1.4 C 4.91 g/m*3 1.4 C 0 km/h
279 14-11-2008 07:42:02 1.6 C 5.03 g/m*3 1.6 C 0 km/h
280 14-11-2008 07:54:02 1.9 C 5.13 g/m*3 1.9 C 0 km/h
281 14-11-2008 08:06:02 2 C 5.11 g/m*3 2 C 0 km/h
282 14-11-2008 08:18:01 2.2 C 5.18 g/m*3 2.2 C 0 km/h
283 14-11-2008 08:30:01 2.1 C 5.09 g/m*3 2.1 C 0 km/h
284 14-11-2008 08:42:02 2.2 C 5.13 g/m*3 2.2 C 0 km/h
285 14-11-2008 08:54:02 2.5 C 5.17 g/m*3 2.5 C 0 km/h
286 14-11-2008 09:06:02 2.9 C 5.26 g/m*3 2.9 C 0 km/h
287 14-11-2008 09:18:02 3.3 C 5.34 g/m*3 3.3 C 0 km/h
288 14-11-2008 09:30:02 3.6 C 5.45 g/m*3 3.6 C 0 km/h
289 14-11-2008 09:42:02 3.9 C 5.49 g/m*3 3.9 C 0 km/h
290 14-11-2008 09:54:02 4.2 C 5.48 g/m*3 4.2 C 0 km/h
291 14-11-2008 10:06:01 4.5 C 5.52 g/m*3 4.5 C 0 km/h
292 14-11-2008 10:18:02 4.7 C 5.53 g/m*3 4.7 C 0 km/h
293 14-11-2008 10:30:02 4.6 C 5.29 g/m*3 4.6 C 0 km/h
294 14-11-2008 10:42:01 5.1 C 5.27 g/m*3 5.1 C 0 km/h
295 14-11-2008 10:54:03 5.6 C 5.16 g/m*3 5.6 C 0 km/h
296 14-11-2008 11:06:02 5.7 C 5.12 g/m*3 5.7 C 0 km/h
297 14-11-2008 11:18:02 6 C 5.23 g/m*3 6 C 0 km/h
298 14-11-2008 11:30:02 6.8 C 4.97 g/m*3 6.8 C 0 km/h
299 14-11-2008 11:42:02 7.5 C 4.72 g/m*3 7.5 C 0 km/h
300 14-11-2008 11:54:02 8.2 C 4.61 g/m*3 8.2 C 0 km/h
Sensor: Nr:Datum:Temp:Abs-Feuchte:Windchill:Wind:
Aussen-T/F 301 14-11-2008 12:06:02 8.8 C 4.44 g/m*3 8.8 C 0 km/h
302 14-11-2008 12:18:02 9 C 4.32 g/m*3 9 C 0 km/h
303 14-11-2008 12:30:02 9 C 4.32 g/m*3 9 C 0 km/h
304 14-11-2008 12:42:02 8.9 C 4.38 g/m*3 8.9 C 0 km/h
305 14-11-2008 12:54:02 9 C 4.41 g/m*3 9 C 0 km/h
306 14-11-2008 13:06:02 8.9 C 4.38 g/m*3 8.9 C 0 km/h
307 14-11-2008 13:18:02 9.1 C 4.35 g/m*3 9.1 C 0 km/h
308 14-11-2008 13:30:02 9.1 C 4.35 g/m*3 9.1 C 0 km/h
309 14-11-2008 13:42:02 8.9 C 4.38 g/m*3 8.9 C 0 km/h
310 14-11-2008 13:54:01 8.8 C 4.44 g/m*3 8.8 C 0 km/h
311 14-11-2008 14:06:02 8.8 C 4.61 g/m*3 8.8 C 0 km/h
312 14-11-2008 14:18:02 8.7 C 4.84 g/m*3 8.7 C 0 km/h
313 14-11-2008 14:30:02 8.6 C 4.81 g/m*3 8.6 C 0 km/h
314 14-11-2008 14:42:02 8.5 C 4.87 g/m*3 8.5 C 0 km/h
315 14-11-2008 14:54:02 8.5 C 4.95 g/m*3 8.5 C 0 km/h
316 14-11-2008 15:06:02 8.2 C 5.19 g/m*3 8.2 C 0 km/h
317 14-11-2008 15:18:01 7.9 C 5.5 g/m*3 7.9 C 0 km/h
318 14-11-2008 15:30:01 7.8 C 5.63 g/m*3 7.8 C 0 km/h
319 14-11-2008 15:42:02 7.6 C 5.64 g/m*3 7.6 C 0 km/h
320 14-11-2008 15:54:02 7.5 C 5.76 g/m*3 7.5 C 0 km/h
321 14-11-2008 16:06:02 7.8 C 5.79 g/m*3 7.8 C 0 km/h
322 14-11-2008 16:18:02 7.9 C 5.83 g/m*3 7.9 C 0 km/h
323 14-11-2008 16:30:02 8 C 5.87 g/m*3 8 C 0 km/h
324 14-11-2008 16:42:02 8.1 C 5.82 g/m*3 8.1 C 0 km/h
325 14-11-2008 16:54:02 8.1 C 5.74 g/m*3 8.1 C 0 km/h
Sensor: Nr:Datum:Temp:Abs-Feuchte:Windchill:Wind:
Aussen-T/F 326 14-11-2008 17:06:02 8.1 C 5.82 g/m*3 8.1 C 0 km/h
327 14-11-2008 17:18:01 8.1 C 5.82 g/m*3 8.1 C 0 km/h
328 14-11-2008 17:30:01 8.1 C 5.82 g/m*3 8.1 C 0 km/h
329 14-11-2008 17:42:02 8.1 C 5.74 g/m*3 8.1 C 0 km/h
330 14-11-2008 17:54:02 8.1 C 5.82 g/m*3 8.1 C 0 km/h
331 14-11-2008 18:06:02 8.1 C 5.82 g/m*3 8.1 C 0 km/h
332 14-11-2008 18:18:02 8.1 C 5.74 g/m*3 8.1 C 0 km/h
333 14-11-2008 18:30:02 8.1 C 5.74 g/m*3 8.1 C 0 km/h
334 14-11-2008 18:42:02 8.1 C 5.74 g/m*3 8.1 C 0 km/h
335 14-11-2008 18:54:02 8.1 C 5.74 g/m*3 8.1 C 0 km/h
336 14-11-2008 19:06:02 8.2 C 5.86 g/m*3 8.2 C 0 km/h
337 14-11-2008 19:18:02 8.1 C 5.74 g/m*3 8.1 C 0 km/h
338 14-11-2008 19:30:03 8.1 C 5.82 g/m*3 8.1 C 0 km/h
339 14-11-2008 19:42:02 8.1 C 5.82 g/m*3 8.1 C 0 km/h
340 14-11-2008 19:54:01 8.1 C 5.82 g/m*3 8.1 C 0 km/h
341 14-11-2008 20:06:02 8.1 C 5.82 g/m*3 8.1 C 0 km/h
342 14-11-2008 20:18:01 8.1 C 5.91 g/m*3 8.1 C 0 km/h
343 14-11-2008 20:30:01 8 C 5.95 g/m*3 8 C 0 km/h
344 14-11-2008 20:42:02 8 C 5.95 g/m*3 8 C 0 km/h
345 14-11-2008 20:54:02 8 C 5.95 g/m*3 8 C 0 km/h
346 14-11-2008 21:06:02 8 C 5.95 g/m*3 8 C 0 km/h
347 14-11-2008 21:18:02 8 C 5.95 g/m*3 8 C 0 km/h
348 14-11-2008 21:30:02 8 C 5.95 g/m*3 8 C 0 km/h
349 14-11-2008 21:42:02 7.9 C 6 g/m*3 7.9 C 0 km/h
350 14-11-2008 21:54:02 7.9 C 6 g/m*3 7.9 C 0 km/h
Sensor: Nr:Datum:Temp:Abs-Feuchte:Windchill:Wind:
Aussen-T/F 351 14-11-2008 22:06:01 8 C 5.95 g/m*3 8 C 0 km/h
352 14-11-2008 22:18:02 8 C 5.95 g/m*3 8 C 0 km/h
353 14-11-2008 22:30:02 8 C 5.95 g/m*3 8 C 0 km/h
354 14-11-2008 22:43:01 8 C 6.04 g/m*3 8 C 0 km/h
355 14-11-2008 22:55:01 8 C 6.12 g/m*3 8 C 0 km/h
356 14-11-2008 23:07:01 8.1 C 6.16 g/m*3 8.1 C 0 km/h
357 14-11-2008 23:19:01 8.2 C 6.28 g/m*3 8.2 C 0 km/h
358 14-11-2008 23:31:01 8.2 C 6.28 g/m*3 8.2 C 0 km/h
359 14-11-2008 23:43:01 8.1 C 6.24 g/m*3 8.1 C 0 km/h
360 14-11-2008 23:55:01 8.1 C 6.32 g/m*3 8.1 C 0 km/h
361 15-11-2008 00:07:01 8.1 C 6.32 g/m*3 8.1 C 0 km/h
362 15-11-2008 00:19:01 8.1 C 6.32 g/m*3 8.1 C 0 km/h
363 15-11-2008 00:31:01 8.1 C 6.41 g/m*3 8.1 C 0 km/h
364 15-11-2008 00:43:02 8.1 C 6.41 g/m*3 8.1 C 0 km/h
365 15-11-2008 00:55:02 8.1 C 6.49 g/m*3 8.1 C 0 km/h
366 15-11-2008 01:07:02 8.1 C 6.49 g/m*3 8.1 C 0 km/h
367 15-11-2008 01:19:02 8 C 6.45 g/m*3 8 C 0 km/h
368 15-11-2008 01:31:02 8 C 6.53 g/m*3 8 C 0 km/h
369 15-11-2008 01:43:02 8.1 C 6.57 g/m*3 8.1 C 0 km/h
370 15-11-2008 01:55:02 8.1 C 6.57 g/m*3 8.1 C 0 km/h
371 15-11-2008 02:07:02 8.2 C 6.62 g/m*3 8.2 C 0 km/h
372 15-11-2008 02:19:02 8.2 C 6.62 g/m*3 8.2 C 0 km/h
373 15-11-2008 02:31:02 8.2 C 6.62 g/m*3 8.2 C 0 km/h
374 15-11-2008 02:43:02 8.2 C 6.62 g/m*3 8.2 C 0 km/h
375 15-11-2008 02:55:02 8.2 C 6.62 g/m*3 8.2 C 0 km/h
Sensor: Nr:Datum:Temp:Abs-Feuchte:Windchill:Wind:
Aussen-T/F 376 15-11-2008 03:07:02 8.2 C 6.62 g/m*3 8.2 C 0 km/h
377 15-11-2008 03:19:02 8.2 C 6.62 g/m*3 8.2 C 0 km/h
378 15-11-2008 03:31:02 8.2 C 6.62 g/m*3 8.2 C 0 km/h
379 15-11-2008 03:43:02 8.2 C 6.7 g/m*3 8.2 C 0 km/h
380 15-11-2008 03:55:02 8.2 C 6.7 g/m*3 8.2 C 0 km/h
381 15-11-2008 04:07:02 8.2 C 6.7 g/m*3 8.2 C 0 km/h
382 15-11-2008 04:19:02 8.2 C 6.7 g/m*3 8.2 C 0 km/h
383 15-11-2008 04:31:03 8.3 C 6.83 g/m*3 8.3 C 0 km/h
384 15-11-2008 04:43:03 8.4 C 6.87 g/m*3 8.4 C 0 km/h
385 15-11-2008 04:55:03 8.5 C 6.92 g/m*3 8.5 C 0 km/h
386 15-11-2008 05:07:03 8.5 C 6.92 g/m*3 8.5 C 0 km/h
387 15-11-2008 05:19:03 8.6 C 6.96 g/m*3 8.6 C 0 km/h
388 15-11-2008 05:31:03 8.7 C 7.01 g/m*3 8.7 C 0 km/h
389 15-11-2008 05:43:03 8.8 C 6.96 g/m*3 8.8 C 0 km/h
390 15-11-2008 05:55:03 8.8 C 6.96 g/m*3 8.8 C 0 km/h
391 15-11-2008 06:07:03 8.8 C 6.96 g/m*3 8.8 C 0 km/h
392 15-11-2008 06:19:03 8.8 C 6.96 g/m*3 8.8 C 0 km/h
393 15-11-2008 06:31:03 8.8 C 6.96 g/m*3 8.8 C 0 km/h
394 15-11-2008 06:43:03 8.9 C 7.01 g/m*3 8.9 C 0 km/h
395 15-11-2008 06:55:03 8.9 C 7.01 g/m*3 8.9 C 0 km/h
396 15-11-2008 07:07:03 9 C 6.96 g/m*3 9 C 0 km/h
397 15-11-2008 07:19:03 9 C 6.96 g/m*3 9 C 0 km/h
398 15-11-2008 07:31:03 9 C 6.96 g/m*3 9 C 0 km/h
399 15-11-2008 07:43:03 9 C 7.05 g/m*3 9 C 0 km/h
400 15-11-2008 07:55:03 9.4 C 7.15 g/m*3 9.4 C 0 km/h
Sensor: Nr:Datum:Temp:Abs-Feuchte:Windchill:Wind:
Aussen-T/F 401 15-11-2008 08:07:03 9.1 C 7.01 g/m*3 9.1 C 0 km/h
402 15-11-2008 08:19:01 9.3 C 7.1 g/m*3 9.3 C 0 km/h
403 15-11-2008 08:31:01 9.3 C 7.1 g/m*3 9.3 C 0 km/h
404 15-11-2008 08:43:01 9.3 C 7.01 g/m*3 9.3 C 0 km/h
405 15-11-2008 08:55:02 9.3 C 7.01 g/m*3 9.3 C 0 km/h
406 15-11-2008 09:07:02 9.4 C 7.05 g/m*3 9.4 C 0 km/h
407 15-11-2008 09:19:03 9.5 C 7.1 g/m*3 9.5 C 0 km/h
408 15-11-2008 09:31:02 9.5 C 7.01 g/m*3 9.5 C 0 km/h
409 15-11-2008 09:43:02 9.6 C 7.05 g/m*3 9.6 C 0 km/h
410 15-11-2008 09:55:02 9.6 C 7.05 g/m*3 9.6 C 0 km/h
411 15-11-2008 10:07:02 9.6 C 7.05 g/m*3 9.6 C 0 km/h
412 15-11-2008 10:19:02 9.7 C 7.01 g/m*3 9.7 C 0 km/h
413 15-11-2008 10:31:02 9.7 C 7.01 g/m*3 9.7 C 0 km/h
414 15-11-2008 10:43:03 9.8 C 7.05 g/m*3 9.8 C 0 km/h
415 15-11-2008 10:55:01 9.8 C 7.05 g/m*3 9.8 C 0 km/h
416 15-11-2008 11:07:02 9.8 C 7.05 g/m*3 9.8 C 0 km/h
417 15-11-2008 11:19:01 9.9 C 7.1 g/m*3 9.9 C 0 km/h
418 15-11-2008 11:31:02 10.1 C 7.09 g/m*3 10.1 C 0 km/h
419 15-11-2008 11:43:02 10.2 C 7.04 g/m*3 10.2 C 0 km/h
420 15-11-2008 11:55:02 10.4 C 7.13 g/m*3 10.4 C 0 km/h
421 15-11-2008 12:07:02 10.4 C 7.04 g/m*3 10.4 C 0 km/h
422 15-11-2008 12:19:02 10.6 C 7.03 g/m*3 10.6 C 0 km/h
423 15-11-2008 12:31:02 10.6 C 7.03 g/m*3 10.6 C 0 km/h
424 15-11-2008 12:43:02 10.7 C 7.07 g/m*3 10.7 C 0 km/h
425 15-11-2008 12:55:02 10.8 C 7.02 g/m*3 10.8 C 0 km/h
Sensor: Nr:Datum:Temp:Abs-Feuchte:Windchill:Wind:
Aussen-T/F 426 15-11-2008 13:07:01 11 C 6.91 g/m*3 11 C 0 km/h
427 15-11-2008 13:19:02 11 C 6.81 g/m*3 11 C 0 km/h
428 15-11-2008 13:31:02 11.1 C 6.85 g/m*3 11.1 C 0 km/h
429 15-11-2008 13:43:02 11.2 C 6.79 g/m*3 11.2 C 0 km/h
430 15-11-2008 13:55:02 11.3 C 6.83 g/m*3 11.3 C 0 km/h
431 15-11-2008 14:07:02 11.3 C 6.83 g/m*3 11.3 C 0 km/h
432 15-11-2008 14:19:02 11.3 C 6.83 g/m*3 11.3 C 0 km/h
433 15-11-2008 14:31:02 11.4 C 6.88 g/m*3 11.4 C 0 km/h
434 15-11-2008 14:43:02 11.4 C 6.88 g/m*3 11.4 C 0 km/h
435 15-11-2008 14:55:02 11.4 C 6.88 g/m*3 11.4 C 0 km/h
436 15-11-2008 15:07:02 11.3 C 6.94 g/m*3 11.3 C 0 km/h
437 15-11-2008 15:19:02 11.3 C 6.94 g/m*3 11.3 C 0 km/h
438 15-11-2008 15:31:02 11.3 C 6.94 g/m*3 11.3 C 0 km/h
439 15-11-2008 15:43:02 11.2 C 6.99 g/m*3 11.2 C 0 km/h
440 15-11-2008 15:55:02 11.2 C 6.99 g/m*3 11.2 C 0 km/h
441 15-11-2008 16:07:02 11.1 C 7.05 g/m*3 11.1 C 0 km/h
442 15-11-2008 16:19:02 11 C 7.01 g/m*3 11 C 0 km/h
443 15-11-2008 16:31:02 11 C 7.11 g/m*3 11 C 0 km/h
444 15-11-2008 16:43:02 11 C 7.11 g/m*3 11 C 0 km/h
445 15-11-2008 16:55:01 11 C 7.11 g/m*3 11 C 0 km/h
446 15-11-2008 17:07:02 10.9 C 7.16 g/m*3 10.9 C 0 km/h
447 15-11-2008 17:19:02 10.9 C 7.26 g/m*3 10.9 C 0 km/h
448 15-11-2008 17:31:02 10.9 C 7.26 g/m*3 10.9 C 0 km/h
449 15-11-2008 17:43:02 10.8 C 7.22 g/m*3 10.8 C 0 km/h
450 15-11-2008 17:55:02 10.8 C 7.31 g/m*3 10.8 C 0 km/h
Sensor: Nr:Datum:Temp:Abs-Feuchte:Windchill:Wind:
Aussen-T/F 451 15-11-2008 18:07:03 10.8 C 7.31 g/m*3 10.8 C 0 km/h
452 15-11-2008 18:19:02 10.7 C 7.27 g/m*3 10.7 C 0 km/h
453 15-11-2008 18:31:03 10.8 C 7.31 g/m*3 10.8 C 0 km/h
454 15-11-2008 18:43:03 10.7 C 7.27 g/m*3 10.7 C 0 km/h
455 15-11-2008 18:55:02 10.7 C 7.27 g/m*3 10.7 C 0 km/h
456 15-11-2008 19:07:02 10.7 C 7.27 g/m*3 10.7 C 0 km/h
457 15-11-2008 19:19:02 10.7 C 7.27 g/m*3 10.7 C 0 km/h
458 15-11-2008 19:31:02 10.7 C 7.27 g/m*3 10.7 C 0 km/h
459 15-11-2008 19:43:02 10.7 C 7.27 g/m*3 10.7 C 0 km/h
460 15-11-2008 19:55:01 10.7 C 7.37 g/m*3 10.7 C 0 km/h
461 15-11-2008 20:07:02 10.7 C 7.37 g/m*3 10.7 C 0 km/h
462 15-11-2008 20:19:01 10.6 C 7.32 g/m*3 10.6 C 0 km/h
463 15-11-2008 20:31:01 10.6 C 7.32 g/m*3 10.6 C 0 km/h
464 15-11-2008 20:43:01 10.6 C 7.42 g/m*3 10.6 C 0 km/h
465 15-11-2008 20:55:02 10.6 C 7.42 g/m*3 10.6 C 0 km/h
466 15-11-2008 21:07:02 10.5 C 7.47 g/m*3 10.5 C 0 km/h
467 15-11-2008 21:19:02 10.5 C 7.47 g/m*3 10.5 C 0 km/h
468 15-11-2008 21:31:02 10.5 C 7.47 g/m*3 10.5 C 0 km/h
469 15-11-2008 21:43:02 10.5 C 7.57 g/m*3 10.5 C 0 km/h
470 15-11-2008 21:55:02 10.5 C 7.57 g/m*3 10.5 C 0 km/h
471 15-11-2008 22:07:01 10.5 C 7.57 g/m*3 10.5 C 0 km/h
472 15-11-2008 22:19:02 10.5 C 7.57 g/m*3 10.5 C 0 km/h
473 15-11-2008 22:31:01 10.5 C 7.57 g/m*3 10.5 C 0 km/h
474 15-11-2008 22:43:01 10.4 C 7.52 g/m*3 10.4 C 0 km/h
475 15-11-2008 22:55:02 10.4 C 7.61 g/m*3 10.4 C 0 km/h
Sensor: Nr:Datum:Temp:Abs-Feuchte:Windchill:Wind:
Aussen-T/F 476 15-11-2008 23:07:01 10.4 C 7.61 g/m*3 10.4 C 0 km/h
477 15-11-2008 23:20:02 10.4 C 7.61 g/m*3 10.4 C 0 km/h
478 15-11-2008 23:32:02 10.4 C 7.61 g/m*3 10.4 C 0 km/h
479 15-11-2008 23:44:02 10.4 C 7.61 g/m*3 10.4 C 0 km/h
480 15-11-2008 23:56:03 10.3 C 7.66 g/m*3 10.3 C 0 km/h
481 16-11-2008 00:08:03 10.2 C 7.71 g/m*3 10.2 C 0 km/h
482 16-11-2008 00:20:03 10.1 C 7.85 g/m*3 10.1 C 0 km/h
483 16-11-2008 00:32:03 10 C 7.8 g/m*3 10 C 0 km/h
484 16-11-2008 00:44:03 10.1 C 7.94 g/m*3 10.1 C 0 km/h
485 16-11-2008 00:56:03 10 C 7.89 g/m*3 10 C 0 km/h
486 16-11-2008 01:08:03 10.1 C 7.94 g/m*3 10.1 C 0 km/h
487 16-11-2008 01:20:03 10.1 C 7.94 g/m*3 10.1 C 0 km/h
488 16-11-2008 01:32:03 10.1 C 7.94 g/m*3 10.1 C 0 km/h
489 16-11-2008 01:44:03 10.1 C 7.94 g/m*3 10.1 C 0 km/h
490 16-11-2008 01:56:03 10 C 7.99 g/m*3 10 C 0 km/h
491 16-11-2008 02:08:03 9.9 C 8.12 g/m*3 9.9 C 0 km/h
492 16-11-2008 02:20:03 10 C 8.08 g/m*3 10 C 0 km/h
493 16-11-2008 02:32:03 10.1 C 8.13 g/m*3 10.1 C 0 km/h
494 16-11-2008 02:44:03 10.2 C 8.18 g/m*3 10.2 C 0 km/h
495 16-11-2008 02:56:03 10.3 C 8.14 g/m*3 10.3 C 0 km/h
496 16-11-2008 03:08:03 10.3 C 8.04 g/m*3 10.3 C 0 km/h
497 16-11-2008 03:20:03 10.4 C 8 g/m*3 10.4 C 0 km/h
498 16-11-2008 03:32:03 10.4 C 8 g/m*3 10.4 C 0 km/h
499 16-11-2008 03:44:04 10.4 C 7.9 g/m*3 10.4 C 0 km/h
500 16-11-2008 03:56:04 10.4 C 7.9 g/m*3 10.4 C 0 km/h
Sensor: Nr:Datum:Temp:Abs-Feuchte:Windchill:Wind:
Aussen-T/F 501 16-11-2008 04:08:04 10.4 C 7.9 g/m*3 10.4 C 0 km/h
502 16-11-2008 04:20:04 10.5 C 7.95 g/m*3 10.5 C 0 km/h
503 16-11-2008 04:32:04 10.4 C 7.9 g/m*3 10.4 C 0 km/h
504 16-11-2008 04:44:04 10.5 C 7.95 g/m*3 10.5 C 0 km/h
505 16-11-2008 04:56:04 10.6 C 7.91 g/m*3 10.6 C 0 km/h
506 16-11-2008 05:08:04 10.7 C 7.86 g/m*3 10.7 C 0 km/h
507 16-11-2008 05:20:04 10.7 C 7.86 g/m*3 10.7 C 0 km/h
508 16-11-2008 05:32:04 10.7 C 7.86 g/m*3 10.7 C 0 km/h
509 16-11-2008 05:44:04 10.8 C 7.91 g/m*3 10.8 C 0 km/h
510 16-11-2008 05:56:04 10.8 C 7.81 g/m*3 10.8 C 0 km/h
511 16-11-2008 06:08:04 10.7 C 7.86 g/m*3 10.7 C 0 km/h
512 16-11-2008 06:20:04 10.5 C 7.86 g/m*3 10.5 C 0 km/h
513 16-11-2008 06:32:04 10.2 C 7.99 g/m*3 10.2 C 0 km/h
514 16-11-2008 06:44:04 10.3 C 8.14 g/m*3 10.3 C 0 km/h
515 16-11-2008 06:56:04 10.4 C 8.1 g/m*3 10.4 C 0 km/h
516 16-11-2008 07:08:04 10.5 C 8.15 g/m*3 10.5 C 0 km/h
517 16-11-2008 07:20:04 10.6 C 8.1 g/m*3 10.6 C 0 km/h
518 16-11-2008 07:32:04 10.7 C 8.05 g/m*3 10.7 C 0 km/h
519 16-11-2008 07:44:05 10.7 C 8.05 g/m*3 10.7 C 0 km/h
520 16-11-2008 07:56:05 10.8 C 8.11 g/m*3 10.8 C 0 km/h
521 16-11-2008 08:08:05 10.9 C 8.06 g/m*3 10.9 C 0 km/h
522 16-11-2008 08:20:01 11 C 8.01 g/m*3 11 C 0 km/h
523 16-11-2008 08:32:01 11.1 C 8.06 g/m*3 11.1 C 0 km/h
524 16-11-2008 08:44:01 11.2 C 8.01 g/m*3 11.2 C 0 km/h
525 16-11-2008 08:56:01 11.2 C 8.01 g/m*3 11.2 C 0 km/h
Sensor: Nr:Datum:Temp:Abs-Feuchte:Windchill:Wind:
Aussen-T/F 526 16-11-2008 09:08:01 11.2 C 8.01 g/m*3 11.2 C 0 km/h
527 16-11-2008 09:20:01 11.4 C 8.01 g/m*3 11.4 C 0 km/h
528 16-11-2008 09:32:01 11.7 C 8.16 g/m*3 11.7 C 0 km/h
529 16-11-2008 09:44:01 11.6 C 8.11 g/m*3 11.6 C 0 km/h
530 16-11-2008 09:56:02 11.6 C 8.21 g/m*3 11.6 C 0 km/h
531 16-11-2008 10:08:02 11.4 C 8.21 g/m*3 11.4 C 0 km/h
532 16-11-2008 10:20:02 11.2 C 8.21 g/m*3 11.2 C 0 km/h
533 16-11-2008 10:32:02 10.9 C 8.45 g/m*3 10.9 C 0 km/h
534 16-11-2008 10:44:02 10.7 C 8.64 g/m*3 10.7 C 0 km/h
535 16-11-2008 10:56:03 10.7 C 8.74 g/m*3 10.7 C 0 km/h
536 16-11-2008 11:08:03 10.8 C 8.9 g/m*3 10.8 C 0 km/h
537 16-11-2008 11:20:02 10.9 C 8.95 g/m*3 10.9 C 0 km/h
538 16-11-2008 11:32:02 11.1 C 9.07 g/m*3 11.1 C 0 km/h
539 16-11-2008 11:44:02 11.6 C 9.46 g/m*3 11.6 C 0 km/h
540 16-11-2008 11:56:02 12.2 C 9.71 g/m*3 12.2 C 0 km/h
541 16-11-2008 12:08:02 12.4 C 9.62 g/m*3 12.4 C 0 km/h
542 16-11-2008 12:20:02 12.5 C 9.46 g/m*3 12.5 C 0 km/h
543 16-11-2008 12:32:02 12.7 C 9.35 g/m*3 12.7 C 0 km/h
544 16-11-2008 12:44:02 12.7 C 9.35 g/m*3 12.7 C 0 km/h
545 16-11-2008 12:56:01 12.7 C 9.24 g/m*3 12.7 C 0 km/h
546 16-11-2008 13:08:02 12.7 C 9.13 g/m*3 12.7 C 0 km/h
547 16-11-2008 13:20:01 12.7 C 9.02 g/m*3 12.7 C 0 km/h
548 16-11-2008 13:32:02 12.4 C 8.85 g/m*3 12.4 C 0 km/h
549 16-11-2008 13:44:02 12.3 C 8.8 g/m*3 12.3 C 0 km/h
550 16-11-2008 13:56:01 12.1 C 8.79 g/m*3 12.1 C 0 km/h
Sensor: Nr:Datum:Temp:Abs-Feuchte:Windchill:Wind:
Aussen-T/F 551 16-11-2008 14:08:02 11.5 C 8.88 g/m*3 11.5 C 0 km/h
552 16-11-2008 14:20:01 10.9 C 8.65 g/m*3 10.9 C 0 km/h
553 16-11-2008 14:32:01 10.7 C 8.64 g/m*3 10.7 C 0 km/h
554 16-11-2008 14:44:01 10.4 C 8.58 g/m*3 10.4 C 0 km/h
555 16-11-2008 14:56:01 10.4 C 8.58 g/m*3 10.4 C 0 km/h
556 16-11-2008 15:08:02 10.3 C 8.62 g/m*3 10.3 C 0 km/h
557 16-11-2008 15:20:01 10.1 C 8.51 g/m*3 10.1 C 0 km/h
558 16-11-2008 15:32:02 10.1 C 8.61 g/m*3 10.1 C 0 km/h
559 16-11-2008 15:44:02 10 C 8.55 g/m*3 10 C 0 km/h
560 16-11-2008 15:56:02 9.9 C 8.68 g/m*3 9.9 C 0 km/h
561 16-11-2008 16:08:02 9.7 C 8.57 g/m*3 9.7 C 0 km/h
562 16-11-2008 16:20:02 9.6 C 8.43 g/m*3 9.6 C 0 km/h
563 16-11-2008 16:32:02 9.6 C 8.52 g/m*3 9.6 C 0 km/h
564 16-11-2008 16:44:02 9.5 C 8.37 g/m*3 9.5 C 0 km/h
565 16-11-2008 16:56:02 9.4 C 8.32 g/m*3 9.4 C 0 km/h
566 16-11-2008 17:08:02 9.1 C 7.99 g/m*3 9.1 C 0 km/h
567 16-11-2008 17:20:02 9.2 C 8.04 g/m*3 9.2 C 0 km/h
568 16-11-2008 17:32:02 9.2 C 7.95 g/m*3 9.2 C 0 km/h
569 16-11-2008 17:44:02 9.3 C 7.91 g/m*3 9.3 C 0 km/h
570 16-11-2008 17:56:02 9.1 C 7.72 g/m*3 9.1 C 0 km/h
571 16-11-2008 18:08:02 8.9 C 7.62 g/m*3 8.9 C 0 km/h
572 16-11-2008 18:20:02 8.8 C 7.66 g/m*3 8.8 C 0 km/h
573 16-11-2008 18:32:02 8.9 C 7.71 g/m*3 8.9 C 0 km/h
574 16-11-2008 18:44:02 8.9 C 7.71 g/m*3 8.9 C 0 km/h
575 16-11-2008 18:56:02 8.8 C 7.66 g/m*3 8.8 C 0 km/h
Sensor: Nr:Datum:Temp:Abs-Feuchte:Windchill:Wind:
Aussen-T/F 576 16-11-2008 19:08:03 8.5 C 7.43 g/m*3 8.5 C 0 km/h
577 16-11-2008 19:20:02 8.3 C 7.25 g/m*3 8.3 C 0 km/h
578 16-11-2008 19:32:02 8.2 C 7.29 g/m*3 8.2 C 0 km/h
579 16-11-2008 19:44:02 8.3 C 7.42 g/m*3 8.3 C 0 km/h
580 16-11-2008 19:56:02 8.6 C 7.39 g/m*3 8.6 C 0 km/h
581 16-11-2008 20:08:01 8.8 C 7.22 g/m*3 8.8 C 0 km/h
582 16-11-2008 20:20:02 8.9 C 7.01 g/m*3 8.9 C 0 km/h
583 16-11-2008 20:32:02 8.7 C 6.92 g/m*3 8.7 C 0 km/h
584 16-11-2008 20:44:02 8.7 C 6.83 g/m*3 8.7 C 0 km/h
585 16-11-2008 20:56:02 8.8 C 6.88 g/m*3 8.8 C 0 km/h
586 16-11-2008 21:08:02 8.8 C 6.79 g/m*3 8.8 C 0 km/h
587 16-11-2008 21:20:02 8.1 C 5.91 g/m*3 8.1 C 0 km/h
588 16-11-2008 21:32:02 7.6 C 5.8 g/m*3 7.6 C 0 km/h
589 16-11-2008 21:44:03 7.3 C 5.77 g/m*3 7.3 C 0 km/h
590 16-11-2008 21:56:02 7 C 5.81 g/m*3 7 C 0 km/h
591 16-11-2008 22:08:01 6.8 C 5.81 g/m*3 6.8 C 0 km/h
592 16-11-2008 22:20:01 6.7 C 5.77 g/m*3 6.7 C 0 km/h
593 16-11-2008 22:32:01 6.5 C 5.7 g/m*3 6.5 C 0 km/h
594 16-11-2008 22:44:01 6.3 C 5.7 g/m*3 6.3 C 0 km/h
595 16-11-2008 22:56:01 6.1 C 5.63 g/m*3 6.1 C 0 km/h
596 16-11-2008 23:08:01 5.8 C 5.73 g/m*3 5.8 C 0 km/h
597 16-11-2008 23:20:01 5.8 C 5.73 g/m*3 5.8 C 0 km/h
598 16-11-2008 23:32:01 5.9 C 5.7 g/m*3 5.9 C 0 km/h
599 16-11-2008 23:44:01 5.8 C 5.66 g/m*3 5.8 C 0 km/h
600 16-11-2008 23:56:01 5.6 C 5.59 g/m*3 5.6 C 0 km/h

Legende:
   Min
   Max


Maximal/Minimal-Werte vom 17.04.2019 - 19.05.2019

Sensor Min Max Avg
Temp
(Aussen-T/F)
2.2 °C
13-05-2019  06:50:00
26.6 °C
24-04-2019  17:05:00
11.51 °C

Die Daten stammen von einer Davis Vantage Pro 2 Wetter-Station und werden unter Linux mit der Software wview2wettercgi und aufbereitet. Alle Angaben erfolgen ohne Gewähr für ihre Vollständigkeit oder Richtigkeit.
Kontakt: Rainer Krienke krienke@uni-koblenz.de . Meine Webseiten an der Uni Koblenz oder privat.
Version: $Revision: 0.78 $